Medicine Hat Airport
CYXH : rendu visible

Aérodrome :











RETROUVEZ-NOUS SUR...

 
LOGIN :

S'inscrire | Disclaimer

   EN    FR    IT 

 









Légende :    VFR   VFR Marginal   IFR   IFR Intensif   IFR Très Intensif
Visi : 
Plafond : 
>= 8 km
>= 3000ft
5 à 8 km
1000 à 3000 ft
1500m à 5 km
500 à 1000 ft
800 à 1500m
200 à 500 ft
< 800m
< 200 ft
Symboles :   Orages  Brouillard  Fortes neiges  Fortes précipitations  Vent > 20 kt






- Altitude de l'aérodrome : 2352 ft
- Code IATA : YXH


CYXH - Medicine Hat

DERNIER METAR :
  • 250500Z AUTO 15004KT CLR 13/05 A2997 RMK WX MISG VIS MISG PCPN MISG SLP153 DENSITY ALT 2500FT

METARs EXPIRÉS :
  • 250400Z AUTO 13005KT CLR 15/04 A2997 RMK WX MISG VIS MISG PCPN MISG SLP153 DENSITY ALT 2800FT
  • 250300Z 11005KT 30SM FEW065 16/04 A2996 RMK SC1 LAST STFD OBS/NEXT 251300Z SLP151 DENSITY ALT 3100FT

TAF TAF CYXH
Valide du 25 à 06h jusqu'au 25 à 18h UTC


250538Z 2506/2518 15005KT P6SM SKC
BECMG 2506/2508 18010KT
BECMG 2511/2513 22012KT RMK FCST BASED ON AUTO OBS. FCST BASED ON OBS OBTAINED FROM OTHER SOURCES NXT FCST BY 251200Z
FIR CZEG / Amérique du Nord



MET'MAP, la Météo Aéronautique d'un coup d'oeil ! - Copyright ORBIFLY Décembre 2007 - Disclaimer

ORBIFLY MET'MAP TEAM :

Programmation & Développement : Alexandra Zaïnal
Sur une idée originale de : Baudouin d'Aumeries
Assistance à la programmation : Marc-Olivier Méhu
Soutien technique & logistique : Manuel Goepfert

Contact : metmap@orbifly.com




SOURCES & CREDITS :

   NOAA       Earth
Advisory